createdAt,value
2022-11-01T00:02:05.093Z,241.88
2022-11-01T00:04:48.251Z,246.70
2022-11-01T00:07:36.992Z,244.65
2022-11-01T00:10:25.895Z,239.88
2022-11-01T00:13:14.873Z,229.57
2022-11-01T00:15:57.260Z,237.10
2022-11-01T00:18:46.031Z,222.90
2022-11-01T00:21:29.310Z,219.40
2022-11-01T00:24:18.001Z,222.00
2022-11-01T00:27:08.013Z,210.10
2022-11-01T00:29:50.213Z,221.57
2022-11-01T00:32:38.971Z,208.88
2022-11-01T00:35:34.051Z,211.10
2022-11-01T00:38:17.887Z,211.85
2022-11-01T00:41:07.038Z,195.80
2022-11-01T00:43:49.433Z,194.60
2022-11-01T00:46:38.240Z,194.55
2022-11-01T00:49:26.265Z,188.32
2022-11-01T00:52:09.013Z,197.00
2022-11-01T00:54:51.219Z,198.73
2022-11-01T00:57:39.900Z,191.27
2022-11-01T01:00:22.274Z,189.90
2022-11-01T01:03:10.893Z,182.00
2022-11-01T01:06:01.334Z,181.90
2022-11-01T01:08:44.040Z,197.60
2022-11-01T01:11:32.890Z,189.57
2022-11-01T01:14:21.950Z,187.60
2022-11-01T01:17:11.303Z,185.27
2022-11-01T01:19:53.867Z,183.98
2022-11-01T01:22:36.424Z,189.10
2022-11-01T01:25:27.965Z,185.48
2022-11-01T01:28:18.064Z,178.82
2022-11-01T01:31:00.319Z,176.52
2022-11-01T01:33:48.902Z,174.32
2022-11-01T01:36:37.270Z,164.70
2022-11-01T01:39:20.051Z,174.75
2022-11-01T01:42:06.034Z,174.32
2022-11-01T01:45:03.955Z,174.10
2022-11-01T01:47:50.509Z,167.30
2022-11-01T01:50:38.982Z,165.68
2022-11-01T01:53:25.031Z,166.30
2022-11-01T01:56:25.021Z,165.68
2022-11-01T01:59:24.001Z,166.40
2022-11-01T02:02:13.083Z,163.32
2022-11-01T02:05:06.331Z,164.07
2022-11-01T02:07:54.967Z,160.57
2022-11-01T02:10:39.310Z,149.05
2022-11-01T02:13:27.988Z,172.07
2022-11-01T02:16:15.426Z,161.82
2022-11-01T02:19:24.990Z,149.82
2022-11-01T02:22:25.953Z,157.77
2022-11-01T02:25:38.393Z,163.15
2022-11-01T02:28:44.979Z,159.15
2022-11-01T02:31:39.893Z,152.75
2022-11-01T02:34:38.240Z,154.73
2022-11-01T02:37:44.956Z,156.98
2022-11-01T02:40:43.457Z,165.02
2022-11-01T02:43:45.957Z,154.98
2022-11-01T02:46:48.742Z,151.10
2022-11-01T02:49:45.962Z,162.20
2022-11-01T02:52:32.841Z,161.30
2022-11-01T02:55:37.902Z,156.52
2022-11-01T02:58:30.262Z,159.48
2022-11-01T03:01:24.095Z,167.00
2022-11-01T03:04:08.298Z,207.93
2022-11-01T03:07:04.885Z,161.90
2022-11-01T03:09:48.297Z,156.45
2022-11-01T03:12:43.036Z,164.15
2022-11-01T03:15:40.980Z,168.20
2022-11-01T03:18:43.967Z,163.27
2022-11-01T03:21:39.960Z,158.88
2022-11-01T03:24:28.859Z,164.77
2022-11-01T03:27:37.006Z,165.10
2022-11-01T03:30:25.867Z,162.13
2022-11-01T03:33:08.294Z,170.60
2022-11-01T03:35:59.977Z,154.27
2022-11-01T03:38:49.296Z,162.25
2022-11-01T03:41:43.950Z,156.30
2022-11-01T03:44:27.249Z,171.00
2022-11-01T03:47:16.951Z,165.20
2022-11-01T03:50:26.959Z,183.10
2022-11-01T03:53:15.951Z,169.48
2022-11-01T03:55:59.349Z,184.20
2022-11-01T03:58:51.965Z,169.07
2022-11-01T04:01:41.374Z,170.40
2022-11-01T04:04:30.301Z,170.13
2022-11-01T04:07:13.046Z,174.02
2022-11-01T04:10:01.244Z,178.50
2022-11-01T04:12:43.965Z,186.25
2022-11-01T04:15:45.997Z,184.88
2022-11-01T04:18:57.873Z,191.82
2022-11-01T04:21:40.437Z,209.35
2022-11-01T04:24:28.844Z,199.38
2022-11-01T04:27:11.159Z,206.57
2022-11-01T04:29:59.986Z,198.25
2022-11-01T04:32:45.468Z,203.02
2022-11-01T04:35:34.955Z,204.07
2022-11-01T04:38:24.275Z,214.77
2022-11-01T04:41:05.955Z,219.52
2022-11-01T04:43:48.705Z,212.45
2022-11-01T04:46:39.928Z,215.70
2022-11-01T04:49:22.278Z,233.80
2022-11-01T04:52:10.939Z,216.93
2022-11-01T04:54:53.103Z,216.93
2022-11-01T04:57:41.870Z,208.63
2022-11-01T05:00:30.939Z,207.88
2022-11-01T05:03:24.949Z,207.38
2022-11-01T05:06:07.619Z,199.85
2022-11-01T05:08:56.984Z,205.55
2022-11-01T05:11:39.260Z,209.15
2022-11-01T05:14:27.957Z,204.70
2022-11-01T05:17:17.272Z,183.32
2022-11-01T05:19:59.947Z,191.60
2022-11-01T05:22:48.319Z,186.68
2022-11-01T05:25:32.680Z,188.70
2022-11-01T05:28:24.002Z,206.57
2022-11-01T05:31:06.235Z,193.23
2022-11-01T05:33:54.940Z,194.68
2022-11-01T05:36:44.370Z,199.00
2022-11-01T05:39:25.972Z,183.63
2022-11-01T05:42:08.194Z,200.15
2022-11-01T05:44:56.983Z,196.43
2022-11-01T05:47:47.979Z,196.40
2022-11-01T05:50:30.340Z,183.82
2022-11-01T05:56:05.226Z,176.30
2022-11-01T05:58:54.942Z,167.20
2022-11-01T06:01:37.324Z,174.38
2022-11-01T06:04:25.952Z,178.52
2022-11-01T06:07:08.398Z,167.57
2022-11-01T06:09:56.876Z,160.75
2022-11-01T06:12:45.946Z,156.45
2022-11-01T06:15:37.260Z,156.50
2022-11-01T06:18:22.268Z,162.70
2022-11-01T06:21:10.860Z,154.38
2022-11-01T06:23:57.250Z,157.18
2022-11-01T06:26:45.947Z,148.27
2022-11-01T06:29:28.282Z,158.00
2022-11-01T06:32:16.958Z,142.13
2022-11-01T06:34:59.228Z,152.35
2022-11-01T06:37:47.959Z,142.55
2022-11-01T06:40:36.961Z,131.10
2022-11-01T06:43:25.228Z,138.75
2022-11-01T06:46:08.951Z,152.80
2022-11-01T06:48:51.117Z,132.07
2022-11-01T06:51:39.921Z,129.85
2022-11-01T06:54:22.156Z,149.07
2022-11-01T06:57:10.931Z,139.90
2022-11-01T06:59:59.947Z,141.65
2022-11-01T07:02:42.262Z,138.52
2022-11-01T07:05:34.421Z,134.80
2022-11-01T07:08:28.348Z,135.35
2022-11-01T07:11:10.205Z,147.65
2022-11-01T07:13:58.956Z,140.30
2022-11-01T07:16:41.168Z,147.85
2022-11-01T07:19:30.954Z,146.27
2022-11-01T07:22:13.117Z,136.45
2022-11-01T07:25:01.926Z,139.35
2022-11-01T07:27:51.004Z,138.80
2022-11-01T07:30:35.273Z,151.70
2022-11-01T07:33:23.949Z,145.18
2022-11-01T07:36:13.216Z,140.23
2022-11-01T07:38:54.961Z,141.25
2022-11-01T07:41:37.129Z,151.90
2022-11-01T07:44:25.841Z,152.98
2022-11-01T07:47:08.168Z,155.52
2022-11-01T07:49:57.842Z,169.27
2022-11-01T07:52:40.148Z,166.52
2022-11-01T07:55:28.947Z,176.70
2022-11-01T07:58:18.257Z,167.75
2022-11-01T08:00:59.975Z,171.18
2022-11-01T08:03:42.134Z,172.85
2022-11-01T08:06:31.010Z,164.30
2022-11-01T08:09:13.116Z,173.90
2022-11-01T08:12:01.941Z,175.23
2022-11-01T08:14:50.868Z,161.77
2022-11-01T08:17:40.017Z,176.45
2022-11-01T08:20:28.800Z,163.93
2022-11-01T08:23:11.942Z,180.95
2022-11-01T08:25:54.183Z,166.98
2022-11-01T08:28:42.936Z,176.18
2022-11-01T08:31:31.937Z,183.82
2022-11-01T08:34:17.011Z,187.88
2022-11-01T08:37:05.969Z,176.63
2022-11-01T08:39:48.237Z,184.60
2022-11-01T08:42:36.933Z,195.75
2022-11-01T08:45:19.287Z,199.27
2022-11-01T08:48:08.934Z,209.25
2022-11-01T08:50:51.277Z,193.75
2022-11-01T08:53:39.857Z,193.00
2022-11-01T08:56:22.901Z,221.02
2022-11-01T08:59:11.947Z,212.60
2022-11-01T09:01:54.372Z,201.20
2022-11-01T09:04:42.829Z,229.65
2022-11-01T09:07:25.215Z,231.90
2022-11-01T09:10:14.968Z,227.40
2022-11-01T09:12:57.224Z,232.73
2022-11-01T09:15:45.919Z,241.65
2022-11-01T09:18:28.220Z,243.45
2022-11-01T09:21:16.930Z,255.35
2022-11-01T09:23:59.936Z,258.63
2022-11-01T09:26:48.840Z,257.40
2022-11-01T09:29:31.235Z,265.30
2022-11-01T09:32:19.984Z,257.42
2022-11-01T09:35:02.234Z,251.73
2022-11-01T09:37:50.978Z,265.88
2022-11-01T09:40:40.211Z,254.63
2022-11-01T09:43:31.954Z,254.18
2022-11-01T09:46:16.719Z,251.35
2022-11-01T09:49:09.941Z,240.05
2022-11-01T09:51:52.292Z,227.30
2022-11-01T09:54:41.933Z,227.82
2022-11-01T09:57:44.263Z,235.23
2022-11-01T10:00:32.923Z,227.80
2022-11-01T10:03:34.569Z,215.48
2022-11-01T10:06:31.935Z,226.77
2022-11-01T10:09:28.945Z,226.23
2022-11-01T10:12:42.994Z,231.25
2022-11-01T10:15:40.392Z,232.43
2022-11-01T10:18:54.354Z,229.45
2022-11-01T10:21:43.987Z,239.65
2022-11-01T10:24:45.993Z,238.80
2022-11-01T10:27:45.874Z,250.25
2022-11-01T10:30:40.981Z,230.27
2022-11-01T10:34:04.858Z,239.07
2022-11-01T10:37:00.967Z,231.73
2022-11-01T10:40:21.062Z,223.45
2022-11-01T10:43:03.941Z,218.38
2022-11-01T10:45:48.146Z,209.13
2022-11-01T10:48:56.941Z,203.48
2022-11-01T10:51:42.672Z,206.73
2022-11-01T10:54:39.826Z,199.43
2022-11-01T10:57:47.376Z,174.52
2022-11-01T11:00:30.948Z,174.57
2022-11-01T11:03:39.950Z,172.52
2022-11-01T11:06:23.234Z,171.10
2022-11-01T11:09:13.880Z,162.18
2022-11-01T11:11:58.266Z,158.00
2022-11-01T11:14:48.862Z,159.60
2022-11-01T11:17:36.820Z,153.20
2022-11-01T11:20:33.481Z,157.75
2022-11-01T11:23:19.210Z,151.98
2022-11-01T11:26:12.940Z,158.50
2022-11-01T11:29:01.280Z,158.85
2022-11-01T11:31:49.853Z,164.35
2022-11-01T11:34:41.353Z,161.05
2022-11-01T11:37:37.879Z,163.32
2022-11-01T11:40:34.013Z,163.35
2022-11-01T11:43:42.770Z,155.98
2022-11-01T11:46:33.878Z,166.90
2022-11-01T11:49:28.450Z,179.90
2022-11-01T11:52:16.860Z,158.55
2022-11-01T11:55:00.172Z,158.00
2022-11-01T11:57:48.837Z,167.55
2022-11-01T12:00:33.385Z,158.93
2022-11-01T12:03:25.839Z,159.50
2022-11-01T12:06:16.234Z,161.48
2022-11-01T12:09:03.944Z,160.32
2022-11-01T12:11:48.902Z,156.75
2022-11-01T12:14:38.888Z,169.90
2022-11-01T12:17:32.540Z,159.32
2022-11-01T12:20:40.954Z,148.20
2022-11-01T12:23:45.925Z,158.23
2022-11-01T12:26:31.701Z,158.63
2022-11-01T12:29:39.938Z,154.68
2022-11-01T12:32:28.972Z,173.52
2022-11-01T12:35:18.984Z,148.50
2022-11-01T12:38:37.228Z,155.50
2022-11-01T12:41:46.855Z,147.02
2022-11-01T12:44:39.223Z,137.00
2022-11-01T12:48:03.148Z,145.52
2022-11-01T12:50:59.334Z,138.63
2022-11-01T12:53:57.947Z,133.75
2022-11-01T12:56:48.016Z,138.13
2022-11-01T12:59:41.435Z,144.13
2022-11-01T13:02:35.957Z,128.75
2022-11-01T13:05:47.307Z,132.60
2022-11-01T13:09:06.845Z,125.32
2022-11-01T13:12:12.229Z,139.65
2022-11-01T13:15:28.367Z,135.98
2022-11-01T13:18:35.930Z,133.65
2022-11-01T13:21:33.049Z,124.53
2022-11-01T13:24:47.862Z,134.82
2022-11-01T13:27:42.832Z,131.35
2022-11-01T13:30:29.381Z,127.65
2022-11-01T13:33:38.929Z,130.98
2022-11-01T13:36:57.923Z,137.65
2022-11-01T13:39:43.168Z,134.32
2022-11-01T13:42:34.913Z,133.43
2022-11-01T13:45:26.938Z,139.40
2022-11-01T13:48:22.363Z,131.10
2022-11-01T13:51:46.913Z,145.60
2022-11-01T13:54:58.336Z,143.88
2022-11-01T13:57:49.944Z,146.90
2022-11-01T14:00:46.247Z,142.50
2022-11-01T14:03:39.924Z,142.48
2022-11-01T14:06:43.932Z,148.50
2022-11-01T14:12:16.712Z,143.20
2022-11-01T14:15:23.959Z,153.18
2022-11-01T14:18:13.228Z,146.00
2022-11-01T14:21:02.825Z,144.23
2022-11-01T14:23:52.222Z,154.48
2022-11-01T14:27:11.964Z,155.73
2022-11-01T14:29:58.210Z,154.43
2022-11-01T14:32:46.906Z,155.27
2022-11-01T14:35:41.215Z,157.70
2022-11-01T14:38:40.973Z,154.55
2022-11-01T14:41:26.431Z,157.57
2022-11-01T14:44:28.919Z,157.35
2022-11-01T14:47:28.237Z,167.73
2022-11-01T14:50:31.931Z,170.90
2022-11-01T14:53:42.423Z,156.02
2022-11-01T14:56:41.171Z,155.13
2022-11-01T14:59:42.282Z,161.65
2022-11-01T15:02:33.116Z,164.75
2022-11-01T15:05:21.246Z,166.88
2022-11-01T15:08:09.863Z,168.68
2022-11-01T15:10:53.229Z,167.95
2022-11-01T15:13:46.911Z,172.48
2022-11-01T15:16:38.912Z,160.60
2022-11-01T15:19:29.052Z,163.05
2022-11-01T15:22:18.854Z,168.18
2022-11-01T15:25:09.827Z,162.85
2022-11-01T15:28:00.846Z,153.52
2022-11-01T15:30:49.907Z,166.38
2022-11-01T15:33:41.853Z,164.20
2022-11-01T15:36:35.828Z,169.40
2022-11-01T15:39:32.958Z,184.32
2022-11-01T15:42:28.455Z,170.43
2022-11-01T15:45:38.837Z,168.43
2022-11-01T15:48:35.966Z,177.50
2022-11-01T15:51:31.251Z,166.85
2022-11-01T15:54:34.944Z,178.27
2022-11-01T16:00:33.911Z,168.52
2022-11-01T16:03:31.839Z,181.80
2022-11-01T16:06:49.125Z,173.27
2022-11-01T16:09:52.922Z,172.65
2022-11-01T16:15:47.905Z,166.18
2022-11-01T16:18:41.182Z,169.48
2022-11-01T16:21:37.912Z,174.50
2022-11-01T16:24:22.555Z,177.10
2022-11-01T16:27:15.915Z,177.20
2022-11-01T16:29:58.358Z,180.68
2022-11-01T16:32:46.925Z,168.00
2022-11-01T16:35:37.204Z,170.68
2022-11-01T16:38:47.211Z,163.77
2022-11-01T16:41:44.353Z,166.23
2022-11-01T16:44:26.889Z,158.98
2022-11-01T16:47:11.091Z,167.30
2022-11-01T16:50:04.932Z,176.57
2022-11-01T16:52:54.406Z,161.90
2022-11-01T16:55:37.379Z,161.35
2022-11-01T16:58:32.196Z,165.77
2022-11-01T17:01:14.964Z,167.63
2022-11-01T17:04:07.881Z,161.30
2022-11-01T17:06:56.828Z,168.52
2022-11-01T17:09:46.819Z,149.88
2022-11-01T17:12:35.945Z,162.18
2022-11-01T17:15:25.929Z,164.32
2022-11-01T17:18:14.392Z,164.35
2022-11-01T17:21:05.906Z,153.13
2022-11-01T17:23:48.266Z,156.95
2022-11-01T17:26:36.837Z,158.40
2022-11-01T17:29:29.983Z,148.77
2022-11-01T17:32:19.188Z,156.35
2022-11-01T17:35:01.963Z,154.88
2022-11-01T17:37:44.622Z,147.02
2022-11-01T17:40:36.673Z,148.88
2022-11-01T17:43:20.257Z,152.63
2022-11-01T17:46:09.927Z,142.98
2022-11-01T17:48:58.938Z,143.57
2022-11-01T17:51:41.514Z,148.10
2022-11-01T17:54:32.414Z,148.93
2022-11-01T17:57:14.326Z,154.38
2022-11-01T18:00:03.923Z,151.02
2022-11-01T18:02:50.823Z,149.70
2022-11-01T18:05:40.976Z,147.27
2022-11-01T18:08:27.234Z,151.13
2022-11-01T18:11:39.903Z,154.85
2022-11-01T18:14:30.321Z,153.50
2022-11-01T18:17:34.823Z,138.88
2022-11-01T18:20:38.452Z,143.93
2022-11-01T18:23:30.913Z,142.60
2022-11-01T18:26:19.319Z,145.30
2022-11-01T18:29:33.369Z,142.15
2022-11-01T18:32:37.780Z,146.75
2022-11-01T18:35:44.993Z,145.07
2022-11-01T18:39:00.816Z,139.25
2022-11-01T18:41:53.887Z,139.57
2022-11-01T18:44:36.354Z,149.17
2022-11-01T18:47:24.802Z,147.80
2022-11-01T18:50:14.078Z,146.70
2022-11-01T18:53:22.933Z,150.82
2022-11-01T18:56:29.549Z,153.95
2022-11-01T18:59:26.888Z,140.57
2022-11-01T19:02:41.919Z,147.25
2022-11-01T19:05:24.341Z,145.98
2022-11-01T19:08:14.908Z,151.95
2022-11-01T19:11:03.974Z,149.68
2022-11-01T19:13:46.425Z,148.98
2022-11-01T19:16:34.991Z,146.40
2022-11-01T19:19:24.231Z,146.48
2022-11-01T19:22:49.290Z,149.52
2022-11-01T19:25:40.893Z,141.70
2022-11-01T19:28:29.240Z,135.70
2022-11-01T19:31:52.890Z,138.32
2022-11-01T19:34:47.224Z,141.68
2022-11-01T19:37:43.778Z,138.60
2022-11-01T19:40:40.878Z,135.63
2022-11-01T19:43:27.164Z,129.10
2022-11-01T19:46:23.821Z,129.10
2022-11-01T19:49:06.499Z,138.95
2022-11-01T19:51:54.846Z,133.02
2022-11-01T19:54:42.188Z,137.75
2022-11-01T19:57:44.998Z,140.02
2022-11-01T20:00:30.349Z,137.07
2022-11-01T20:03:33.796Z,135.10
2022-11-01T20:06:37.931Z,135.88
2022-11-01T20:12:14.803Z,125.80
2022-11-01T20:14:59.112Z,135.35
2022-11-01T20:17:47.965Z,133.10
2022-11-01T20:20:30.129Z,133.98
2022-11-01T20:23:26.955Z,139.95
2022-11-01T20:26:15.803Z,139.25
2022-11-01T20:29:19.744Z,145.23
2022-11-01T20:32:08.885Z,142.07
2022-11-01T20:34:51.677Z,142.40
2022-11-01T20:37:40.806Z,143.93
2022-11-01T20:40:26.103Z,150.68
2022-11-01T20:43:14.796Z,151.40
2022-11-01T20:45:57.209Z,141.75
2022-11-01T20:48:45.957Z,149.70
2022-11-01T20:51:28.287Z,136.98
2022-11-01T20:54:17.964Z,153.43
2022-11-01T20:57:09.747Z,134.13
2022-11-01T21:00:05.189Z,142.52
2022-11-01T21:02:47.897Z,154.13
2022-11-01T21:05:31.762Z,148.65
2022-11-01T21:08:29.830Z,148.38
2022-11-01T21:11:28.794Z,155.52
2022-11-01T21:14:24.192Z,168.35
2022-11-01T21:17:24.792Z,166.75
2022-11-01T21:20:07.146Z,157.93
2022-11-01T21:22:55.827Z,171.63
2022-11-01T21:25:38.178Z,184.45
2022-11-01T21:28:42.779Z,201.30
2022-11-01T21:31:36.193Z,194.10
2022-11-01T21:34:38.882Z,193.30
2022-11-01T21:37:32.371Z,198.52
2022-11-01T21:40:30.763Z,217.20
2022-11-01T21:43:33.771Z,213.07
2022-11-01T21:46:24.228Z,209.65
2022-11-01T21:49:28.781Z,206.05
2022-11-01T21:52:15.219Z,208.98
2022-11-01T21:55:03.919Z,199.07
2022-11-01T21:57:46.386Z,195.55
2022-11-01T22:00:35.288Z,185.40
2022-11-01T22:03:17.223Z,200.65
2022-11-01T22:06:05.910Z,196.02
2022-11-01T22:08:54.838Z,193.45
2022-11-01T22:11:44.936Z,187.57
2022-11-01T22:14:27.201Z,185.43
2022-11-01T22:17:15.990Z,189.60
2022-11-01T22:19:58.237Z,197.82
2022-11-01T22:22:46.927Z,193.82
2022-11-01T22:25:29.199Z,182.40
2022-11-01T22:28:17.954Z,191.57
2022-11-01T22:31:00.199Z,186.60
2022-11-01T22:33:51.231Z,201.93
2022-11-01T22:36:37.252Z,182.45
2022-11-01T22:39:28.792Z,191.75
2022-11-01T22:42:11.145Z,193.95
2022-11-01T22:44:59.800Z,183.90
2022-11-01T22:47:42.170Z,199.43
2022-11-01T22:50:36.892Z,189.18
2022-11-01T22:53:31.180Z,196.68
2022-11-01T22:56:20.890Z,187.35
2022-11-01T22:59:04.218Z,199.10
2022-11-01T23:01:52.947Z,190.20
2022-11-01T23:04:35.167Z,199.27
2022-11-01T23:07:38.776Z,182.73
2022-11-01T23:10:35.164Z,186.48
2022-11-01T23:13:52.782Z,193.93
2022-11-01T23:16:39.177Z,191.18
2022-11-01T23:19:27.816Z,189.77
2022-11-01T23:22:10.203Z,177.77
2022-11-01T23:25:00.777Z,186.77
2022-11-01T23:27:50.890Z,205.23
2022-11-01T23:30:39.281Z,193.10
2022-11-01T23:33:26.849Z,190.55
2022-11-01T23:36:28.897Z,180.38
2022-11-01T23:39:20.095Z,184.48
2022-11-01T23:42:08.798Z,209.20
2022-11-01T23:44:52.181Z,191.95
2022-11-01T23:47:47.879Z,196.95
2022-11-01T23:50:40.168Z,196.55
2022-11-01T23:53:34.842Z,189.40
2022-11-01T23:56:26.792Z,198.88
2022-11-01T23:59:15.869Z,188.75
